Time;durP1;ratioP1;P1;durP2;ratioP2;P2;SDS_P1;SDS_P2;PMS_P1;PMS_P2;Temp;Humidity;BMP_temperature;BMP_pressure;BME280_temperature;BME280_humidity;BME280_pressure;Samples;Min_cycle;Max_cycle;Signal;HPM_P1;HPM_P2
2023/05/11 00:01:04;;;;;;;19.88;13.80;;;11.70;99.90;;;;;;5113603;27;20412;-76
2023/05/11 00:03:30;;;;;;;16.48;14.35;;;11.80;99.90;;;;;;5107953;28;20904;-75
2023/05/11 00:05:56;;;;;;;17.17;14.00;;;11.70;99.90;;;;;;5112040;27;20430;-76
2023/05/11 00:08:21;;;;;;;20.70;14.40;;;11.80;99.90;;;;;;5093974;27;20440;-75
2023/05/11 00:10:47;;;;;;;20.73;13.93;;;11.70;99.90;;;;;;5110096;27;20457;-76
2023/05/11 00:13:13;;;;;;;17.58;13.32;;;11.60;99.90;;;;;;5108042;28;20439;-75
2023/05/11 00:15:39;;;;;;;18.02;13.75;;;11.70;99.90;;;;;;5109689;27;20416;-76
2023/05/11 00:18:04;;;;;;;30.15;15.52;;;11.60;99.90;;;;;;5106980;27;20408;-75
2023/05/11 00:20:30;;;;;;;29.73;14.63;;;11.60;99.90;;;;;;5111761;27;20440;-74
2023/05/11 00:22:56;;;;;;;26.60;12.85;;;11.60;99.90;;;;;;5115043;27;20426;-76
2023/05/11 00:25:21;;;;;;;19.63;14.60;;;11.60;99.90;;;;;;5090835;28;20903;-75
2023/05/11 00:27:47;;;;;;;16.87;12.77;;;11.60;99.90;;;;;;5101614;27;20876;-75
2023/05/11 00:30:14;;;;;;;24.00;13.67;;;11.60;99.90;;;;;;5107906;27;20798;-75
2023/05/11 00:32:40;;;;;;;19.50;13.95;;;11.40;99.90;;;;;;5100128;27;20413;-75
2023/05/11 00:35:06;;;;;;;19.95;12.77;;;11.40;99.90;;;;;;5098392;27;20459;-76
2023/05/11 00:37:32;;;;;;;17.75;13.82;;;11.60;99.90;;;;;;5107141;27;20420;-76
2023/05/11 00:39:57;;;;;;;21.95;14.32;;;11.60;99.90;;;;;;5103258;27;20988;-76
2023/05/11 00:42:23;;;;;;;20.35;13.45;;;11.60;99.90;;;;;;5106951;27;20420;-77
2023/05/11 00:44:49;;;;;;;18.47;13.57;;;11.40;99.90;;;;;;5105125;28;20502;-77
2023/05/11 00:47:14;;;;;;;33.30;12.20;;;11.50;99.90;;;;;;5106845;27;20938;-75
2023/05/11 00:49:40;;;;;;;16.48;12.20;;;11.30;99.90;;;;;;5103100;27;20418;-76
2023/05/11 00:52:07;;;;;;;13.82;10.55;;;11.40;99.90;;;;;;5105406;28;20429;-76
2023/05/11 00:54:34;;;;;;;18.63;11.07;;;11.30;99.90;;;;;;5107033;27;20454;-75
2023/05/11 00:57:00;;;;;;;39.38;11.68;;;11.50;99.90;;;;;;5088042;28;20421;-77
2023/05/11 00:59:26;;;;;;;39.60;11.32;;;11.40;99.90;;;;;;5111303;27;20432;-76
2023/05/11 01:01:52;;;;;;;54.25;12.27;;;11.50;99.90;;;;;;5090213;28;20410;-75
2023/05/11 01:04:18;;;;;;;74.10;11.57;;;11.20;99.90;;;;;;5087859;28;20757;-76
2023/05/11 01:06:51;;;;;;;40.85;11.80;;;11.20;99.90;;;;;;5106904;27;20546;-75
2023/05/11 01:09:36;;;;;;;45.70;11.50;;;11.20;99.90;;;;;;5121970;27;20406;-75
2023/05/11 01:12:14;;;;;;;26.55;11.25;;;11.10;99.90;;;;;;5083768;27;20441;-75
2023/05/11 01:15:02;;;;;;;28.92;11.32;;;11.20;99.90;;;;;;5102646;27;20449;-76
2023/05/11 01:17:54;;;;;;;72.30;12.45;;;11.30;99.90;;;;;;5107407;27;20511;-75
2023/05/11 01:20:25;;;;;;;48.58;11.15;;;11.40;99.90;;;;;;5083142;28;20470;-75
2023/05/11 01:23:17;;;;;;;41.00;11.10;;;11.60;99.90;;;;;;5102361;27;20422;-75
2023/05/11 01:25:46;;;;;;;38.58;10.88;;;11.60;99.90;;;;;;5115245;27;20424;-75
2023/05/11 01:28:36;;;;;;;25.13;11.30;;;11.60;99.90;;;;;;5106104;28;21133;-75
2023/05/11 01:31:10;;;;;;;19.45;10.68;;;11.50;99.90;;;;;;5094049;27;20428;-75
2023/05/11 01:33:57;;;;;;;11.18;8.82;;;11.40;99.90;;;;;;5104431;28;20416;-75
2023/05/11 01:36:30;;;;;;;37.45;9.70;;;11.30;99.90;;;;;;5111654;27;20408;-76
2023/05/11 01:39:01;;;;;;;77.50;10.73;;;11.40;99.90;;;;;;5102722;27;20424;-75
2023/05/11 01:41:28;;;;;;;59.95;11.48;;;11.40;99.90;;;;;;5099199;27;20447;-75
2023/05/11 01:43:58;;;;;;;50.40;11.68;;;11.50;99.90;;;;;;5103956;28;20955;-75
2023/05/11 01:46:31;;;;;;;38.45;11.23;;;11.50;99.90;;;;;;5084481;28;20435;-74
2023/05/11 01:48:59;;;;;;;40.63;10.95;;;11.30;99.90;;;;;;5094322;28;20422;-75
2023/05/11 01:51:29;;;;;;;136.60;15.05;;;11.30;99.90;;;;;;5107363;27;20428;-74
2023/05/11 01:53:57;;;;;;;52.30;12.23;;;11.30;99.90;;;;;;5116814;27;20423;-75
2023/05/11 01:56:25;;;;;;;114.75;13.80;;;11.30;99.90;;;;;;5088734;28;20428;-75
2023/05/11 01:58:54;;;;;;;54.03;10.65;;;11.30;99.90;;;;;;5100151;28;20559;-75
2023/05/11 02:01:21;;;;;;;63.30;12.02;;;11.30;99.90;;;;;;5111852;28;20442;-76
2023/05/11 02:03:48;;;;;;;79.45;12.77;;;11.10;99.90;;;;;;5087919;28;20809;-74
2023/05/11 02:06:16;;;;;;;60.08;11.90;;;11.10;99.90;;;;;;5098771;28;20416;-75
2023/05/11 02:08:44;;;;;;;57.53;11.20;;;11.20;99.90;;;;;;5089134;28;20418;-75
2023/05/11 02:11:11;;;;;;;105.60;13.55;;;11.20;99.90;;;;;;5094791;28;20432;-74
2023/05/11 02:13:39;;;;;;;45.95;11.32;;;11.30;99.90;;;;;;5088742;28;20428;-75
2023/05/11 02:16:06;;;;;;;64.57;11.15;;;11.60;99.90;;;;;;5101967;28;20424;-75
2023/05/11 02:18:32;;;;;;;45.38;11.15;;;11.40;99.90;;;;;;5099236;28;20416;-75
2023/05/11 02:21:00;;;;;;;119.40;12.60;;;11.50;99.90;;;;;;5106487;28;20481;-75
2023/05/11 02:23:26;;;;;;;83.22;12.45;;;11.30;99.90;;;;;;5086506;28;20418;-75
2023/05/11 02:25:53;;;;;;;71.10;11.13;;;11.20;99.90;;;;;;5099837;28;20425;-74
2023/05/11 02:28:19;;;;;;;60.35;11.65;;;11.20;99.90;;;;;;5106699;28;20471;-74
2023/05/11 02:30:47;;;;;;;50.65;10.60;;;11.10;99.90;;;;;;5085225;28;20830;-75
2023/05/11 02:33:34;;;;;;;54.33;9.73;;;11.00;99.90;;;;;;5106045;28;20416;-75
2023/05/11 02:36:01;;;;;;;111.30;11.37;;;11.30;99.90;;;;;;5117532;28;20410;-74
2023/05/11 02:38:35;;;;;;;61.03;10.27;;;11.30;99.90;;;;;;5104354;28;20419;-74
2023/05/11 02:41:06;;;;;;;48.83;8.75;;;11.30;99.90;;;;;;5112796;28;20444;-75
2023/05/11 02:43:35;;;;;;;41.70;9.30;;;11.40;99.90;;;;;;5088305;28;20414;-74
2023/05/11 02:46:05;;;;;;;65.10;10.63;;;11.30;99.90;;;;;;5117906;28;20813;-74
2023/05/11 02:48:37;;;;;;;50.33;8.80;;;11.40;99.90;;;;;;5084000;28;20476;-74
2023/05/11 02:51:07;;;;;;;56.63;9.90;;;11.30;99.90;;;;;;5104824;27;20504;-75
2023/05/11 02:53:35;;;;;;;96.38;11.88;;;11.30;99.90;;;;;;5102093;27;20416;-75
2023/05/11 02:56:01;;;;;;;76.00;10.25;;;11.30;99.90;;;;;;5109832;27;20418;-75
2023/05/11 02:58:28;;;;;;;66.35;10.02;;;11.40;99.90;;;;;;5107431;28;20412;-75
2023/05/11 03:00:55;;;;;;;94.82;12.80;;;11.20;99.90;;;;;;5113685;27;20428;-76
2023/05/11 03:03:21;;;;;;;48.80;10.45;;;11.10;99.90;;;;;;5111620;27;20419;-74
2023/05/11 03:05:46;;;;;;;87.90;11.57;;;11.20;99.90;;;;;;5111264;27;20503;-75
2023/05/11 03:08:12;;;;;;;42.30;10.57;;;11.30;99.90;;;;;;5088363;28;20423;-75
2023/05/11 03:10:40;;;;;;;30.33;10.30;;;11.10;99.90;;;;;;5108676;27;20428;-75
2023/05/11 03:13:07;;;;;;;69.88;11.75;;;11.10;99.90;;;;;;5108809;27;20427;-76
2023/05/11 03:15:33;;;;;;;58.60;12.60;;;11.40;99.90;;;;;;5110115;27;20506;-75
2023/05/11 03:18:00;;;;;;;72.93;11.38;;;11.10;99.90;;;;;;5107365;27;20433;-75
2023/05/11 03:20:26;;;;;;;48.53;11.02;;;11.10;99.90;;;;;;5114477;27;20432;-75
2023/05/11 03:22:52;;;;;;;37.75;10.45;;;10.90;99.90;;;;;;5109949;27;20423;-75
2023/05/11 03:25:19;;;;;;;35.13;11.00;;;11.00;99.90;;;;;;5089019;28;20499;-74
2023/05/11 03:27:46;;;;;;;50.30;11.05;;;11.00;99.90;;;;;;5116322;27;20458;-75
2023/05/11 03:30:14;;;;;;;41.58;10.95;;;10.90;99.90;;;;;;5090711;28;20447;-75
2023/05/11 03:32:40;;;;;;;44.30;10.48;;;10.90;99.90;;;;;;5115986;27;20464;-75
2023/05/11 03:35:06;;;;;;;48.00;10.93;;;10.90;99.90;;;;;;5094408;28;20428;-75
2023/05/11 03:37:33;;;;;;;25.92;10.35;;;11.00;99.90;;;;;;5110296;27;20423;-75
2023/05/11 03:40:02;;;;;;;38.30;10.18;;;11.00;99.90;;;;;;5107430;27;20424;-75
2023/05/11 03:42:29;;;;;;;38.75;9.80;;;10.90;99.90;;;;;;5105520;27;20420;-75
2023/05/11 03:44:58;;;;;;;33.85;9.45;;;10.90;99.90;;;;;;5098344;27;20433;-75
2023/05/11 03:47:27;;;;;;;35.22;10.40;;;10.90;99.90;;;;;;5093646;27;20436;-75
2023/05/11 03:49:54;;;;;;;26.52;9.07;;;10.80;99.90;;;;;;5103543;27;20499;-76
2023/05/11 03:52:21;;;;;;;54.53;11.50;;;11.00;99.90;;;;;;5073750;27;20483;-75
2023/05/11 03:54:47;;;;;;;23.90;10.87;;;11.00;99.90;;;;;;5118658;27;20487;-76
2023/05/11 03:57:15;;;;;;;33.67;10.50;;;10.90;99.90;;;;;;5085696;27;20846;-75
2023/05/11 03:59:41;;;;;;;60.47;11.03;;;10.90;99.90;;;;;;5087475;28;20969;-75
2023/05/11 04:02:07;;;;;;;56.70;11.40;;;10.90;99.90;;;;;;5110400;27;20419;-75
2023/05/11 04:04:33;;;;;;;25.33;9.82;;;10.80;99.90;;;;;;5110315;27;20519;-75
2023/05/11 04:06:59;;;;;;;59.25;12.30;;;10.80;99.90;;;;;;5104119;27;20502;-75
2023/05/11 04:09:25;;;;;;;50.95;11.70;;;11.00;99.90;;;;;;5118467;27;20473;-75
2023/05/11 04:11:51;;;;;;;93.40;12.38;;;10.80;99.90;;;;;;5104079;27;20875;-75
2023/05/11 04:14:17;;;;;;;65.03;11.33;;;10.90;99.90;;;;;;5101464;27;20448;-74
2023/05/11 04:16:43;;;;;;;81.87;12.43;;;10.80;99.90;;;;;;5098151;27;20464;-74
2023/05/11 04:19:09;;;;;;;77.88;11.73;;;10.80;99.90;;;;;;5089997;28;20428;-76
2023/05/11 04:21:35;;;;;;;61.53;11.00;;;10.80;99.90;;;;;;5085727;28;20484;-75
2023/05/11 04:24:01;;;;;;;76.65;11.02;;;10.90;99.90;;;;;;5123677;27;20408;-75
2023/05/11 04:26:27;;;;;;;73.57;11.95;;;10.60;99.90;;;;;;5104848;28;20534;-76
2023/05/11 04:28:53;;;;;;;66.97;10.70;;;10.70;99.90;;;;;;5096077;27;20489;-75
2023/05/11 04:31:18;;;;;;;145.35;13.95;;;10.80;99.90;;;;;;5090137;28;20428;-75
2023/05/11 04:33:44;;;;;;;122.28;11.23;;;10.60;99.90;;;;;;5106181;27;20416;-75
2023/05/11 04:36:10;;;;;;;104.72;11.77;;;10.60;99.90;;;;;;5107347;27;20780;-75
2023/05/11 04:38:36;;;;;;;99.30;9.95;;;10.70;99.90;;;;;;5109901;27;20512;-75
2023/05/11 04:41:03;;;;;;;148.75;12.95;;;10.60;99.90;;;;;;5078434;28;20835;-75
2023/05/11 04:43:29;;;;;;;64.50;9.48;;;10.70;99.90;;;;;;5109035;27;20416;-74
2023/05/11 04:45:54;;;;;;;62.30;9.50;;;10.80;99.90;;;;;;5091982;28;20744;-74
2023/05/11 04:48:20;;;;;;;61.33;8.40;;;10.70;99.90;;;;;;5072509;28;20422;-76
2023/05/11 04:50:46;;;;;;;46.93;8.63;;;10.70;99.90;;;;;;5096143;28;21049;-75
2023/05/11 04:53:11;;;;;;;45.35;8.38;;;10.70;99.90;;;;;;5112150;27;20421;-75
2023/05/11 04:55:37;;;;;;;63.42;8.25;;;10.90;99.90;;;;;;5096877;28;20477;-75
2023/05/11 04:58:03;;;;;;;75.20;8.97;;;11.00;99.90;;;;;;5107224;27;20415;-75
2023/05/11 05:00:28;;;;;;;60.33;8.10;;;10.80;99.90;;;;;;5105644;28;21118;-76
2023/05/11 05:02:54;;;;;;;45.50;7.60;;;11.00;99.90;;;;;;5106338;27;20556;-75
2023/05/11 05:05:20;;;;;;;42.03;8.40;;;10.80;99.90;;;;;;5100302;28;20782;-75
2023/05/11 05:07:46;;;;;;;63.97;8.13;;;10.90;99.90;;;;;;5110039;27;20448;-75
2023/05/11 05:10:11;;;;;;;36.05;8.55;;;11.00;99.90;;;;;;5087555;28;20424;-74
2023/05/11 05:12:40;;;;;;;49.92;8.45;;;10.90;99.90;;;;;;5107808;27;20510;-74
2023/05/11 05:15:06;;;;;;;76.10;7.68;;;10.90;99.90;;;;;;5070554;28;20457;-74
2023/05/11 05:17:32;;;;;;;43.72;7.40;;;10.80;99.90;;;;;;5099566;27;20902;-73
2023/05/11 05:19:58;;;;;;;55.85;6.60;;;10.80;99.90;;;;;;5106912;27;20465;-74
2023/05/11 05:22:24;;;;;;;16.00;5.77;;;10.70;99.90;;;;;;5101853;28;20409;-74
2023/05/11 05:24:51;;;;;;;34.85;5.93;;;10.90;99.90;;;;;;5097566;27;20792;-74
2023/05/11 05:27:17;;;;;;;36.13;6.55;;;10.80;99.90;;;;;;5086626;28;20405;-75
2023/05/11 05:29:42;;;;;;;28.45;5.85;;;10.80;99.90;;;;;;5101241;27;20800;-75
2023/05/11 05:32:08;;;;;;;40.57;5.73;;;10.80;99.90;;;;;;5087416;28;20463;-73
2023/05/11 05:34:34;;;;;;;38.97;5.43;;;11.00;99.90;;;;;;5105435;27;20414;-73
2023/05/11 05:37:00;;;;;;;25.30;5.43;;;11.00;99.90;;;;;;5117961;27;20411;-74
2023/05/11 05:39:25;;;;;;;47.10;5.50;;;11.00;99.90;;;;;;5111877;27;20435;-75
2023/05/11 05:41:51;;;;;;;105.70;7.90;;;10.90;99.90;;;;;;5099053;27;20771;-74
2023/05/11 05:44:17;;;;;;;78.20;7.17;;;10.80;99.90;;;;;;5092136;27;20430;-74
2023/05/11 05:46:43;;;;;;;57.47;6.53;;;10.90;99.90;;;;;;5120295;27;20480;-74
2023/05/11 05:49:08;;;;;;;73.43;6.70;;;11.00;99.90;;;;;;5103143;27;20511;-74
2023/05/11 05:51:34;;;;;;;71.05;6.60;;;11.20;99.90;;;;;;5074369;28;20462;-73
2023/05/11 05:54:00;;;;;;;70.88;6.55;;;11.10;99.90;;;;;;5085556;28;20450;-73
2023/05/11 05:56:26;;;;;;;41.70;6.15;;;11.00;99.90;;;;;;5086844;28;20496;-74
2023/05/11 05:58:51;;;;;;;36.38;5.55;;;11.00;99.90;;;;;;5104946;28;20412;-74
2023/05/11 06:01:17;;;;;;;11.38;5.05;;;11.00;99.90;;;;;;5087722;28;20933;-74
2023/05/11 06:03:44;;;;;;;12.27;4.97;;;11.00;99.90;;;;;;5096878;28;20816;-74
2023/05/11 06:06:10;;;;;;;12.15;5.20;;;11.00;99.90;;;;;;5127598;28;20406;-74
2023/05/11 06:08:36;;;;;;;34.28;5.50;;;11.00;99.90;;;;;;5114913;28;20413;-74
2023/05/11 06:11:02;;;;;;;45.30;5.97;;;11.10;99.90;;;;;;5088273;28;21209;-75
2023/05/11 06:13:28;;;;;;;26.47;6.07;;;11.00;99.90;;;;;;5111235;28;20906;-74
2023/05/11 06:15:53;;;;;;;17.70;4.97;;;11.00;99.90;;;;;;5090065;28;20438;-73
2023/05/11 06:18:19;;;;;;;11.10;4.10;;;11.00;99.90;;;;;;5093638;28;20503;-74
2023/05/11 06:20:45;;;;;;;5.22;3.70;;;10.90;99.90;;;;;;5097436;28;20817;-74
2023/05/11 06:23:10;;;;;;;6.28;4.07;;;11.00;99.90;;;;;;5124749;27;20446;-74
2023/05/11 06:25:36;;;;;;;5.30;4.70;;;10.90;99.90;;;;;;5109243;27;21068;-73
2023/05/11 06:28:01;;;;;;;23.27;5.13;;;11.00;99.90;;;;;;5106179;27;20408;-73
2023/05/11 06:30:28;;;;;;;11.30;5.03;;;11.30;99.90;;;;;;5109866;28;20507;-73
2023/05/11 06:32:54;;;;;;;8.90;4.90;;;11.10;99.90;;;;;;5108389;28;20408;-73
2023/05/11 06:35:20;;;;;;;7.18;5.00;;;11.30;99.90;;;;;;5108144;28;20427;-74
2023/05/11 06:37:46;;;;;;;5.90;5.00;;;11.20;99.90;;;;;;5084762;27;20462;-73
2023/05/11 06:40:12;;;;;;;7.93;5.37;;;11.40;99.90;;;;;;5107771;27;20464;-73
2023/05/11 06:42:38;;;;;;;7.82;5.78;;;11.30;99.90;;;;;;5109392;27;20403;-74
2023/05/11 06:45:04;;;;;;;7.07;5.97;;;11.20;99.90;;;;;;5083180;28;20901;-73
2023/05/11 06:47:29;;;;;;;12.93;5.95;;;11.20;99.90;;;;;;5092278;27;20425;-74
2023/05/11 06:49:55;;;;;;;9.13;6.20;;;11.20;99.90;;;;;;5082127;28;20427;-73
2023/05/11 06:52:20;;;;;;;7.40;5.87;;;11.40;99.90;;;;;;5106616;28;21025;-74
2023/05/11 06:54:46;;;;;;;9.98;7.00;;;11.50;99.90;;;;;;5111260;27;20412;-73
2023/05/11 06:57:12;;;;;;;15.75;8.23;;;11.30;99.90;;;;;;5067787;28;20457;-73
2023/05/11 06:59:37;;;;;;;10.27;6.87;;;11.20;99.90;;;;;;5089725;28;21236;-73
2023/05/11 07:02:03;;;;;;;8.47;7.17;;;11.50;99.90;;;;;;5101576;27;20515;-73
2023/05/11 07:04:28;;;;;;;9.40;8.00;;;11.40;99.90;;;;;;5110833;27;20509;-74
2023/05/11 07:06:54;;;;;;;9.18;8.13;;;11.40;99.90;;;;;;5111065;27;20527;-74
2023/05/11 07:09:20;;;;;;;13.25;9.52;;;11.50;99.90;;;;;;5103618;27;20408;-74
2023/05/11 07:11:46;;;;;;;12.70;10.07;;;11.30;99.90;;;;;;5109235;28;20436;-74
2023/05/11 07:14:11;;;;;;;11.00;9.27;;;11.30;99.90;;;;;;5108304;27;20487;-74
2023/05/11 07:16:37;;;;;;;12.47;10.20;;;11.70;99.90;;;;;;5128256;27;20914;-74
2023/05/11 07:19:04;;;;;;;13.87;11.33;;;11.60;99.90;;;;;;5090680;27;21044;-75
2023/05/11 07:21:31;;;;;;;15.20;11.38;;;11.70;99.90;;;;;;5128915;27;20476;-75
2023/05/11 07:23:58;;;;;;;16.45;12.70;;;11.70;99.90;;;;;;5110291;27;20425;-74
2023/05/11 07:26:26;;;;;;;18.23;12.50;;;11.70;99.90;;;;;;5090673;27;20450;-73
2023/05/11 07:28:52;;;;;;;14.38;11.65;;;11.90;99.90;;;;;;5112420;27;20428;-73
2023/05/11 07:31:17;;;;;;;14.80;11.43;;;11.70;99.90;;;;;;5106286;27;20489;-74
2023/05/11 07:33:43;;;;;;;14.07;11.00;;;11.70;99.90;;;;;;5106975;27;20425;-73
2023/05/11 07:36:09;;;;;;;13.93;10.85;;;11.70;99.90;;;;;;5090572;27;20428;-73
2023/05/11 07:38:35;;;;;;;12.80;10.60;;;11.70;99.90;;;;;;5104963;28;20412;-74
2023/05/11 07:41:01;;;;;;;14.38;11.77;;;11.60;99.90;;;;;;5096450;27;20422;-73
2023/05/11 07:43:26;;;;;;;15.52;12.55;;;11.80;99.90;;;;;;5107229;27;20469;-73
2023/05/11 07:45:52;;;;;;;15.50;11.73;;;12.00;99.90;;;;;;5105910;27;20433;-73
2023/05/11 07:48:18;;;;;;;15.93;11.75;;;12.00;99.90;;;;;;5103299;27;20425;-74
2023/05/11 07:50:43;;;;;;;18.10;12.70;;;12.00;99.90;;;;;;5109259;27;20432;-74
2023/05/11 07:53:09;;;;;;;17.67;12.10;;;12.10;99.90;;;;;;5109487;28;20416;-74
2023/05/11 07:55:35;;;;;;;17.43;12.63;;;12.20;99.90;;;;;;5097438;27;20426;-73
2023/05/11 07:58:01;;;;;;;17.37;12.70;;;12.10;99.90;;;;;;5089493;28;20515;-73
2023/05/11 08:00:27;;;;;;;19.40;13.63;;;12.10;99.90;;;;;;5094189;27;20502;-73
2023/05/11 08:02:53;;;;;;;19.73;12.97;;;12.10;99.90;;;;;;5115346;27;21087;-73
2023/05/11 08:05:19;;;;;;;19.93;14.27;;;12.10;99.90;;;;;;5089054;27;20411;-73
2023/05/11 08:07:45;;;;;;;25.47;15.33;;;12.20;99.90;;;;;;5122550;27;20425;-73
2023/05/11 08:10:11;;;;;;;23.60;14.85;;;12.20;99.90;;;;;;5088408;28;20418;-73
2023/05/11 08:12:37;;;;;;;20.30;14.20;;;12.20;99.90;;;;;;5117698;27;20721;-73
2023/05/11 08:15:04;;;;;;;21.35;14.05;;;12.10;99.90;;;;;;5093469;27;20897;-73
2023/05/11 08:17:30;;;;;;;20.75;14.25;;;12.20;99.90;;;;;;5088269;28;20511;-74
2023/05/11 08:19:56;;;;;;;24.23;14.77;;;12.20;99.90;;;;;;5101492;28;20869;-73
2023/05/11 08:22:22;;;;;;;30.38;17.17;;;12.10;99.90;;;;;;5118734;27;20425;-73
2023/05/11 08:24:49;;;;;;;27.35;17.65;;;12.20;99.90;;;;;;5093874;27;20475;-74
2023/05/11 08:27:16;;;;;;;32.13;19.13;;;12.20;99.90;;;;;;5105837;27;20420;-73
2023/05/11 08:29:41;;;;;;;31.00;17.85;;;12.30;99.90;;;;;;5091998;28;20947;-73
2023/05/11 08:32:07;;;;;;;28.55;17.67;;;12.20;99.90;;;;;;5099171;27;20432;-74
2023/05/11 08:34:33;;;;;;;28.80;17.65;;;12.30;99.90;;;;;;5056477;28;20421;-76
2023/05/11 08:37:00;;;;;;;30.60;17.98;;;12.40;99.90;;;;;;5090672;28;20419;-74
2023/05/11 08:39:27;;;;;;;29.40;17.10;;;12.40;99.90;;;;;;5104764;27;20420;-74
2023/05/11 08:41:54;;;;;;;29.35;16.67;;;12.40;99.90;;;;;;5106910;28;20416;-74
2023/05/11 08:44:21;;;;;;;22.13;14.30;;;12.50;99.90;;;;;;5106671;28;20968;-74
2023/05/11 08:46:52;;;;;;;24.08;14.38;;;12.30;99.90;;;;;;5104428;27;20408;-74
2023/05/11 08:49:18;;;;;;;18.60;11.50;;;12.70;99.90;;;;;;5089543;28;20412;-74
2023/05/11 08:51:45;;;;;;;17.80;12.07;;;12.60;99.90;;;;;;5108400;27;20424;-74
2023/05/11 08:54:11;;;;;;;17.25;11.00;;;12.70;99.90;;;;;;5108390;28;20507;-74
2023/05/11 08:56:39;;;;;;;15.18;11.18;;;12.50;99.90;;;;;;5096739;28;20447;-74
2023/05/11 08:59:07;;;;;;;15.65;10.68;;;12.60;99.90;;;;;;5096580;28;20452;-74
2023/05/11 09:01:36;;;;;;;15.77;11.52;;;12.70;99.90;;;;;;5108008;27;20424;-74
2023/05/11 09:04:02;;;;;;;17.90;12.52;;;12.70;99.90;;;;;;5108037;28;20723;-74
2023/05/11 09:06:29;;;;;;;19.27;12.80;;;12.70;99.90;;;;;;5088685;28;20484;-74
2023/05/11 09:08:56;;;;;;;18.73;13.48;;;12.40;99.90;;;;;;5108047;27;20458;-74
2023/05/11 09:11:23;;;;;;;17.55;12.18;;;12.60;99.90;;;;;;5089987;27;20430;-74
2023/05/11 09:13:50;;;;;;;17.33;11.82;;;12.70;99.90;;;;;;5103152;28;20424;-74
2023/05/11 09:16:15;;;;;;;19.60;12.80;;;12.60;99.90;;;;;;5107794;28;20416;-74
2023/05/11 09:18:52;;;;;;;19.65;13.15;;;12.90;99.90;;;;;;5073702;27;20473;-74
2023/05/11 09:21:23;;;;;;;19.42;13.57;;;12.70;99.90;;;;;;5102252;27;20430;-74
2023/05/11 09:23:49;;;;;;;25.88;15.10;;;12.80;99.90;;;;;;5088597;28;20499;-74
2023/05/11 09:26:25;;;;;;;19.07;13.40;;;12.80;99.90;;;;;;5106826;27;20553;-74
2023/05/11 09:28:58;;;;;;;20.35;13.57;;;12.70;99.90;;;;;;5106377;28;20461;-74
2023/05/11 09:31:47;;;;;;;20.88;14.20;;;13.00;99.90;;;;;;5107267;28;20902;-74
2023/05/11 09:34:19;;;;;;;16.45;12.63;;;12.90;99.90;;;;;;5082512;28;20405;-74
2023/05/11 09:36:47;;;;;;;18.97;14.57;;;12.80;99.90;;;;;;5100978;28;20515;-74
2023/05/11 09:39:13;;;;;;;19.23;14.15;;;13.00;99.90;;;;;;5108830;27;20414;-75
2023/05/11 09:41:39;;;;;;;18.13;14.03;;;12.90;99.90;;;;;;5115065;27;20486;-74
2023/05/11 09:44:14;;;;;;;18.43;15.07;;;13.00;99.90;;;;;;5089391;28;20729;-74
2023/05/11 09:46:42;;;;;;;16.73;13.93;;;13.30;99.90;;;;;;5091921;28;20438;-74
2023/05/11 09:49:09;;;;;;;16.88;14.25;;;13.40;99.90;;;;;;5105637;28;20411;-74
2023/05/11 09:51:37;;;;;;;18.30;14.00;;;13.40;99.90;;;;;;5106359;28;20420;-74
2023/05/11 09:54:20;;;;;;;15.25;12.77;;;13.50;99.90;;;;;;5105352;28;20488;-74
2023/05/11 09:56:50;;;;;;;15.30;12.40;;;13.30;99.90;;;;;;5106392;28;20408;-73
2023/05/11 09:59:36;;;;;;;16.30;13.10;;;13.50;99.90;;;;;;5116182;27;20418;-73
2023/05/11 10:02:34;;;;;;;15.57;11.98;;;13.60;99.90;;;;;;5104863;28;20508;-74
2023/05/11 10:05:09;;;;;;;15.27;12.25;;;13.60;99.90;;;;;;5054190;28;20419;-73
2023/05/11 10:07:35;;;;;;;14.53;12.17;;;13.60;99.90;;;;;;5104695;28;20408;-73
2023/05/11 10:10:05;;;;;;;15.70;12.57;;;13.80;99.90;;;;;;5105564;28;20408;-74
2023/05/11 10:12:32;;;;;;;13.77;12.23;;;13.90;99.90;;;;;;5090497;28;20424;-75
2023/05/11 10:15:03;;;;;;;16.92;12.80;;;14.10;99.90;;;;;;5108114;28;20404;-76
2023/05/11 10:17:29;;;;;;;15.55;12.75;;;14.30;99.90;;;;;;5107452;28;21009;-77
2023/05/11 10:19:56;;;;;;;15.27;12.97;;;14.60;99.90;;;;;;5106505;28;20465;-73
2023/05/11 10:22:24;;;;;;;15.75;13.13;;;14.30;99.90;;;;;;5122308;28;20698;-74
2023/05/11 10:24:50;;;;;;;16.88;13.93;;;14.60;99.90;;;;;;5092717;28;20914;-75
2023/05/11 10:27:17;;;;;;;14.65;13.10;;;14.70;99.90;;;;;;5105699;28;20928;-75
2023/05/11 10:29:46;;;;;;;15.20;13.50;;;14.60;99.90;;;;;;5105935;28;20449;-74
2023/05/11 10:32:13;;;;;;;17.30;13.75;;;14.70;99.90;;;;;;5106708;28;20757;-75
2023/05/11 10:34:41;;;;;;;13.88;12.48;;;14.60;99.90;;;;;;5129465;27;20540;-74
2023/05/11 10:37:07;;;;;;;13.23;11.82;;;14.70;99.90;;;;;;5097639;28;20915;-75
2023/05/11 10:39:36;;;;;;;15.82;12.10;;;14.70;99.90;;;;;;5106355;28;20940;-74
2023/05/11 10:42:14;;;;;;;14.82;13.27;;;14.70;99.90;;;;;;5101861;28;20451;-75
2023/05/11 10:45:04;;;;;;;18.15;14.18;;;14.50;99.90;;;;;;5088071;28;20412;-74
2023/05/11 10:47:51;;;;;;;13.57;12.18;;;14.70;99.90;;;;;;5107276;28;20450;-74
2023/05/11 10:50:16;;;;;;;14.17;12.63;;;14.60;99.90;;;;;;5103667;28;20515;-76
2023/05/11 10:52:48;;;;;;;16.60;14.97;;;14.60;99.90;;;;;;5106567;28;20491;-76
2023/05/11 10:55:29;;;;;;;14.20;12.77;;;14.80;99.90;;;;;;5107576;28;20420;-76
2023/05/11 10:58:09;;;;;;;14.60;13.10;;;14.90;99.90;;;;;;5109087;28;20413;-76
2023/05/11 11:00:42;;;;;;;14.38;12.98;;;15.30;99.90;;;;;;5126084;28;20414;-76
2023/05/11 11:03:12;;;;;;;14.65;13.13;;;15.70;99.90;;;;;;5112152;28;20444;-75
2023/05/11 11:05:38;;;;;;;14.30;12.90;;;15.50;99.90;;;;;;5105756;28;20404;-74
2023/05/11 11:08:07;;;;;;;12.80;11.57;;;15.50;99.90;;;;;;5112390;27;20418;-76
2023/05/11 11:10:39;;;;;;;11.82;10.63;;;15.30;99.90;;;;;;5098336;28;20420;-75
2023/05/11 11:13:10;;;;;;;11.68;10.10;;;15.70;99.90;;;;;;5092694;28;20448;-74
2023/05/11 11:15:54;;;;;;;12.13;10.93;;;15.50;99.90;;;;;;5107817;28;20427;-75
2023/05/11 11:18:23;;;;;;;11.70;10.52;;;15.80;99.90;;;;;;5105802;27;20399;-75
2023/05/11 11:20:54;;;;;;;12.05;10.63;;;15.40;99.90;;;;;;5129592;27;20482;-75
2023/05/11 11:23:38;;;;;;;11.70;10.50;;;15.70;99.90;;;;;;5129665;27;20908;-74
2023/05/11 11:26:04;;;;;;;13.48;11.30;;;15.40;99.90;;;;;;5122147;27;20424;-74
2023/05/11 11:29:01;;;;;;;11.90;10.73;;;15.50;99.90;;;;;;5090324;28;20431;-74
2023/05/11 11:31:29;;;;;;;12.80;11.50;;;15.50;99.90;;;;;;5108062;28;20995;-74
2023/05/11 11:33:57;;;;;;;10.63;9.65;;;15.90;99.90;;;;;;5109236;28;20452;-74
2023/05/11 11:36:54;;;;;;;10.48;9.48;;;15.70;99.90;;;;;;5090784;28;20499;-79
2023/05/11 11:39:29;;;;;;;8.95;7.85;;;15.90;99.90;;;;;;5124706;27;20410;-76
2023/05/11 11:42:02;;;;;;;10.20;9.03;;;16.10;99.90;;;;;;5111743;27;20408;-74
2023/05/11 11:44:28;;;;;;;9.57;8.60;;;15.90;99.90;;;;;;5104977;28;20427;-75
2023/05/11 11:47:16;;;;;;;10.05;9.05;;;16.10;99.90;;;;;;5109111;28;20450;-75
2023/05/11 11:49:44;;;;;;;9.52;8.57;;;15.80;99.90;;;;;;5120405;27;20495;-75
2023/05/11 11:52:31;;;;;;;9.57;8.68;;;16.10;99.90;;;;;;5108431;28;20419;-75
2023/05/11 11:55:01;;;;;;;8.63;7.82;;;16.20;99.90;;;;;;5090526;28;20457;-75
2023/05/11 11:57:32;;;;;;;9.05;8.15;;;16.40;99.90;;;;;;5107456;28;20416;-74
2023/05/11 12:00:07;;;;;;;10.23;8.97;;;16.40;99.90;;;;;;5106098;28;20420;-75
2023/05/11 12:02:33;;;;;;;14.20;8.60;;;16.00;99.90;;;;;;5109095;28;20404;-75
2023/05/11 12:05:12;;;;;;;8.23;7.45;;;16.20;99.90;;;;;;5090314;28;20971;-75
2023/05/11 12:07:47;;;;;;;8.52;7.72;;;16.30;99.90;;;;;;5108573;27;20416;-75
2023/05/11 12:10:13;;;;;;;8.45;7.40;;;16.10;99.90;;;;;;5111088;27;20926;-75
2023/05/11 12:12:43;;;;;;;9.23;8.38;;;16.60;99.90;;;;;;5128067;27;20415;-75
2023/05/11 12:15:22;;;;;;;7.53;6.78;;;16.80;99.90;;;;;;5095822;28;20865;-76
2023/05/11 12:17:48;;;;;;;8.23;7.43;;;16.40;99.90;;;;;;5091640;27;20708;-76
2023/05/11 12:20:15;;;;;;;7.57;6.82;;;16.30;99.90;;;;;;5116431;27;20420;-75
2023/05/11 12:22:42;;;;;;;8.57;6.30;;;16.50;99.90;;;;;;5107876;28;21110;-75
2023/05/11 12:25:10;;;;;;;6.03;5.43;;;16.80;99.90;;;;;;5108137;28;20444;-75
2023/05/11 12:27:49;;;;;;;6.65;5.97;;;16.40;99.90;;;;;;5088901;28;20412;-75
2023/05/11 12:30:25;;;;;;;6.57;5.78;;;16.30;99.90;;;;;;5110821;27;20420;-74
2023/05/11 12:32:52;;;;;;;5.47;4.97;;;16.90;99.90;;;;;;5089784;28;20803;-74
2023/05/11 12:35:23;;;;;;;6.80;6.17;;;17.00;99.90;;;;;;5108349;27;20501;-74
2023/05/11 12:37:49;;;;;;;6.93;6.22;;;16.80;99.90;;;;;;5122732;27;20442;-74